createdAt,value
2022-12-13T00:01:41.999Z,95.17
2022-12-13T00:04:43.660Z,95.10
2022-12-13T00:07:45.506Z,94.90
2022-12-13T00:10:47.166Z,95.00
2022-12-13T00:13:50.255Z,95.25
2022-12-13T00:16:51.888Z,95.19
2022-12-13T00:19:53.659Z,95.79
2022-12-13T00:22:55.396Z,95.73
2022-12-13T00:26:01.678Z,95.80
2022-12-13T00:29:06.012Z,95.83
2022-12-13T00:32:07.636Z,95.47
2022-12-13T00:35:09.519Z,95.34
2022-12-13T00:38:11.443Z,95.58
2022-12-13T00:41:13.592Z,95.70
2022-12-13T00:44:16.778Z,96.27
2022-12-13T00:47:20.839Z,95.88
2022-12-13T00:50:22.658Z,96.47
2022-12-13T00:53:24.412Z,96.73
2022-12-13T00:56:27.783Z,96.99
2022-12-13T00:59:30.886Z,96.95
2022-12-13T01:02:32.438Z,96.97
2022-12-13T01:06:12.881Z,97.48
2022-12-13T01:08:57.168Z,97.38
2022-12-13T01:12:00.258Z,97.79
2022-12-13T01:15:03.989Z,97.52
2022-12-13T01:18:05.664Z,97.28
2022-12-13T01:21:08.446Z,97.29
2022-12-13T01:24:10.462Z,98.30
2022-12-13T01:27:12.110Z,99.11
2022-12-13T01:30:15.252Z,98.28
2022-12-13T01:33:16.999Z,98.36
2022-12-13T01:36:19.708Z,98.12
2022-12-13T01:39:31.041Z,98.16
2022-12-13T01:42:40.072Z,98.25
2022-12-13T01:45:43.508Z,98.11
2022-12-13T01:48:47.593Z,98.65
2022-12-13T01:51:53.546Z,98.61
2022-12-13T01:54:57.474Z,98.99
2022-12-13T01:58:06.168Z,98.46
2022-12-13T02:01:09.249Z,98.67
2022-12-13T02:04:11.632Z,98.63
2022-12-13T02:07:23.296Z,98.52
2022-12-13T02:10:25.798Z,98.82
2022-12-13T02:13:27.502Z,98.74
2022-12-13T02:16:39.123Z,99.12
2022-12-13T02:19:58.668Z,98.64
2022-12-13T02:23:10.055Z,98.84
2022-12-13T02:26:22.960Z,99.60
2022-12-13T02:29:45.703Z,99.05
2022-12-13T02:32:56.289Z,99.41
2022-12-13T02:36:04.958Z,98.84
2022-12-13T02:39:08.914Z,99.09
2022-12-13T02:42:22.009Z,99.24
2022-12-13T02:45:27.958Z,98.89
2022-12-13T02:48:34.247Z,98.98
2022-12-13T02:51:39.518Z,99.79
2022-12-13T02:54:42.787Z,99.64
2022-12-13T02:57:45.383Z,99.77
2022-12-13T03:00:52.579Z,99.28
2022-12-13T03:04:01.211Z,100.00
2022-12-13T03:07:08.442Z,99.88
2022-12-13T03:10:14.274Z,99.66
2022-12-13T03:13:38.021Z,99.76
2022-12-13T03:16:42.369Z,99.88
2022-12-13T03:19:45.305Z,100.00
2022-12-13T03:22:46.854Z,99.84
2022-12-13T03:25:50.228Z,99.85
2022-12-13T03:28:53.514Z,99.75
2022-12-13T03:31:55.296Z,99.52
2022-12-13T03:35:12.204Z,99.91
2022-12-13T03:38:21.921Z,99.63
2022-12-13T03:41:31.768Z,99.73
2022-12-13T03:44:33.358Z,99.65
2022-12-13T03:47:35.134Z,99.63
2022-12-13T03:50:38.203Z,99.82
2022-12-13T03:53:40.094Z,100.00
2022-12-13T03:56:42.073Z,99.49
2022-12-13T03:59:43.653Z,99.27
2022-12-13T04:02:45.377Z,99.20
2022-12-13T04:05:48.512Z,99.71
2022-12-13T04:08:51.291Z,99.31
2022-12-13T04:12:12.292Z,99.44
2022-12-13T04:15:14.092Z,98.88
2022-12-13T04:18:16.333Z,99.00
2022-12-13T04:21:19.300Z,99.59
2022-12-13T04:24:21.009Z,98.99
2022-12-13T04:27:22.912Z,99.38
2022-12-13T04:30:24.511Z,99.15
2022-12-13T04:33:26.157Z,98.87
2022-12-13T04:36:31.428Z,99.23
2022-12-13T04:39:34.702Z,99.30
2022-12-13T04:42:36.570Z,99.18
2022-12-13T04:45:38.261Z,99.22
2022-12-13T04:48:39.928Z,99.14
2022-12-13T04:51:42.966Z,98.87
2022-12-13T04:54:55.794Z,98.59
2022-12-13T04:57:57.974Z,98.52
2022-12-13T05:00:59.775Z,98.34
2022-12-13T05:04:03.362Z,98.41
2022-12-13T05:07:06.542Z,98.16
2022-12-13T05:10:08.484Z,98.23
2022-12-13T05:13:10.168Z,98.01
2022-12-13T05:16:12.630Z,97.98
2022-12-13T05:19:14.852Z,98.18
2022-12-13T05:22:20.836Z,98.22
2022-12-13T05:25:22.787Z,97.88
2022-12-13T05:28:27.100Z,97.80
2022-12-13T05:31:33.589Z,97.92
2022-12-13T05:34:35.376Z,97.94
2022-12-13T05:37:38.442Z,97.99
2022-12-13T05:40:40.026Z,98.32
2022-12-13T05:43:43.864Z,98.38
2022-12-13T05:46:46.202Z,98.79
2022-12-13T05:49:47.981Z,98.62
2022-12-13T05:52:51.268Z,98.33
2022-12-13T05:55:52.874Z,98.40
2022-12-13T05:58:54.782Z,98.43
2022-12-13T06:01:57.129Z,98.22
2022-12-13T06:04:58.825Z,98.15
2022-12-13T06:08:01.908Z,98.69
2022-12-13T06:11:10.970Z,98.93
2022-12-13T06:14:22.729Z,98.60
2022-12-13T06:17:25.333Z,98.59
2022-12-13T06:20:27.082Z,98.21
2022-12-13T06:23:30.898Z,98.81
2022-12-13T06:26:32.564Z,98.54
2022-12-13T06:29:34.412Z,98.41
2022-12-13T06:32:39.971Z,98.86
2022-12-13T06:35:44.231Z,98.51
2022-12-13T06:38:47.155Z,98.54
2022-12-13T06:41:48.803Z,98.46
2022-12-13T06:44:56.208Z,98.67
2022-12-13T06:47:59.113Z,98.84
2022-12-13T06:51:01.747Z,98.94
2022-12-13T06:54:04.902Z,98.50
2022-12-13T06:57:06.510Z,98.21
2022-12-13T07:00:08.922Z,98.21
2022-12-13T07:03:11.469Z,98.58
2022-12-13T07:06:14.482Z,98.40
2022-12-13T07:09:17.510Z,98.42
2022-12-13T07:12:21.039Z,98.55
2022-12-13T07:15:22.784Z,98.77
2022-12-13T07:18:24.325Z,98.45
2022-12-13T07:21:25.949Z,98.15
2022-12-13T07:24:28.885Z,98.19
2022-12-13T07:27:30.630Z,98.14
2022-12-13T07:30:33.386Z,98.12
2022-12-13T07:33:35.634Z,98.28
2022-12-13T07:36:37.270Z,98.23
2022-12-13T07:39:40.741Z,98.22
2022-12-13T07:42:48.800Z,97.96
2022-12-13T07:45:50.783Z,97.97
2022-12-13T07:48:52.485Z,98.00
2022-12-13T07:52:03.323Z,98.15
2022-12-13T07:55:07.398Z,98.01
2022-12-13T07:58:10.045Z,97.95
2022-12-13T08:01:12.163Z,97.99
2022-12-13T08:04:14.220Z,98.33
2022-12-13T08:07:15.920Z,98.55
2022-12-13T08:10:19.278Z,97.64
2022-12-13T08:13:21.334Z,97.88
2022-12-13T08:16:27.824Z,98.05
2022-12-13T08:19:30.536Z,98.29
2022-12-13T08:22:35.947Z,98.19
2022-12-13T08:25:39.331Z,98.43
2022-12-13T08:28:41.122Z,98.33
2022-12-13T08:31:42.817Z,98.16
2022-12-13T08:34:45.565Z,98.48
2022-12-13T08:37:47.313Z,98.06
2022-12-13T08:40:51.669Z,98.58
2022-12-13T08:43:53.326Z,98.13
2022-12-13T08:46:55.349Z,98.05
2022-12-13T08:50:02.971Z,97.97
2022-12-13T08:53:05.490Z,98.24
2022-12-13T08:56:10.926Z,98.15
2022-12-13T08:59:12.569Z,98.52
2022-12-13T09:02:17.996Z,98.32
2022-12-13T09:05:34.167Z,97.98
2022-12-13T09:08:37.488Z,97.73
2022-12-13T09:11:43.486Z,97.61
2022-12-13T09:14:46.125Z,98.19
2022-12-13T09:17:52.471Z,97.82
2022-12-13T09:20:54.511Z,97.75
2022-12-13T09:24:23.942Z,98.18
2022-12-13T09:27:29.071Z,98.21
2022-12-13T09:30:31.525Z,98.10
2022-12-13T09:33:41.601Z,97.42
2022-12-13T09:36:43.689Z,97.20
2022-12-13T09:39:47.503Z,97.66
2022-12-13T09:43:13.256Z,97.72
2022-12-13T09:46:22.984Z,97.14
2022-12-13T09:49:28.423Z,97.08
2022-12-13T09:52:38.163Z,96.85
2022-12-13T09:55:42.485Z,97.65
2022-12-13T09:58:47.823Z,98.04
2022-12-13T10:01:49.469Z,97.87
2022-12-13T10:04:52.290Z,97.02
2022-12-13T10:08:06.275Z,97.31
2022-12-13T10:11:11.955Z,97.43
2022-12-13T10:14:19.089Z,96.63
2022-12-13T10:17:22.062Z,97.02
2022-12-13T10:20:26.262Z,96.84
2022-12-13T10:23:42.612Z,96.74
2022-12-13T10:26:50.062Z,96.54
2022-12-13T10:30:04.019Z,96.64
2022-12-13T10:33:06.068Z,96.75
2022-12-13T10:36:09.346Z,97.08
2022-12-13T10:39:16.210Z,97.22
2022-12-13T10:42:22.516Z,96.63
2022-12-13T10:45:26.822Z,96.24
2022-12-13T10:48:38.751Z,96.91
2022-12-13T10:51:41.401Z,97.19
2022-12-13T10:54:48.224Z,96.87
2022-12-13T10:57:52.266Z,96.58
2022-12-13T11:01:07.802Z,96.99
2022-12-13T11:04:27.128Z,96.60
2022-12-13T11:07:30.959Z,96.94
2022-12-13T11:10:32.997Z,96.90
2022-12-13T11:13:36.995Z,96.81
2022-12-13T11:16:41.509Z,96.93
2022-12-13T11:19:45.425Z,96.87
2022-12-13T11:22:47.164Z,96.46
2022-12-13T11:25:49.049Z,96.43
2022-12-13T11:28:59.597Z,96.81
2022-12-13T11:32:09.189Z,96.20
2022-12-13T11:35:15.460Z,96.78
2022-12-13T11:38:28.508Z,96.37
2022-12-13T11:41:34.039Z,96.65
2022-12-13T11:44:45.918Z,96.58
2022-12-13T11:48:01.637Z,96.41
2022-12-13T11:51:05.760Z,96.68
2022-12-13T11:54:10.768Z,96.72
2022-12-13T11:57:16.627Z,97.36
2022-12-13T12:00:33.882Z,96.89
2022-12-13T12:03:40.962Z,97.34
2022-12-13T12:06:46.378Z,96.32
2022-12-13T12:09:50.605Z,96.90
2022-12-13T12:12:55.627Z,95.69
2022-12-13T12:16:06.567Z,96.08
2022-12-13T12:19:13.005Z,96.10
2022-12-13T12:22:19.340Z,96.20
2022-12-13T12:25:25.818Z,95.97
2022-12-13T12:28:30.997Z,96.51
2022-12-13T12:31:51.455Z,96.46
2022-12-13T12:34:57.364Z,96.40
2022-12-13T12:38:05.590Z,95.93
2022-12-13T12:41:28.491Z,96.56
2022-12-13T12:44:34.889Z,96.22
2022-12-13T12:48:38.572Z,96.03
2022-12-13T12:51:09.723Z,96.04
2022-12-13T12:54:23.432Z,95.95
2022-12-13T12:57:32.767Z,96.56
2022-12-13T13:00:40.850Z,95.91
2022-12-13T13:03:43.399Z,96.27
2022-12-13T13:06:47.630Z,96.13
2022-12-13T13:09:51.551Z,95.98
2022-12-13T13:13:11.647Z,96.30
2022-12-13T13:16:35.022Z,96.51
2022-12-13T13:19:41.103Z,96.56
2022-12-13T13:22:47.674Z,96.79
2022-12-13T13:26:24.333Z,96.86
2022-12-13T13:29:43.495Z,96.45
2022-12-13T13:32:46.067Z,97.04
2022-12-13T13:35:50.576Z,96.56
2022-12-13T13:39:01.678Z,96.49
2022-12-13T13:42:17.117Z,96.35
2022-12-13T13:45:20.398Z,96.50
2022-12-13T13:48:28.332Z,96.64
2022-12-13T13:52:16.654Z,96.71
2022-12-13T13:55:24.614Z,96.50
2022-12-13T13:58:51.438Z,96.17
2022-12-13T14:02:10.882Z,96.54
2022-12-13T14:05:34.720Z,96.05
2022-12-13T14:08:41.737Z,96.33
2022-12-13T14:12:06.047Z,96.48
2022-12-13T14:15:35.639Z,96.71
2022-12-13T14:19:11.668Z,96.41
2022-12-13T14:22:21.069Z,96.67
2022-12-13T14:25:32.267Z,96.29
2022-12-13T14:28:41.899Z,96.39
2022-12-13T14:31:45.214Z,96.63
2022-12-13T14:34:47.031Z,96.47
2022-12-13T14:37:56.647Z,96.79
2022-12-13T14:40:59.914Z,97.18
2022-12-13T14:44:15.670Z,96.63
2022-12-13T14:47:17.659Z,97.32
2022-12-13T14:50:19.557Z,97.06
2022-12-13T14:53:24.607Z,97.22
2022-12-13T14:56:28.483Z,97.02
2022-12-13T14:59:33.459Z,96.82
2022-12-13T15:02:35.158Z,97.13
2022-12-13T15:05:38.556Z,96.98
2022-12-13T15:08:42.001Z,96.90
2022-12-13T15:11:44.600Z,96.69
2022-12-13T15:14:49.790Z,96.62
2022-12-13T15:18:04.301Z,97.15
2022-12-13T15:21:17.835Z,96.71
2022-12-13T15:24:24.547Z,96.77
2022-12-13T15:27:27.067Z,96.48
2022-12-13T15:30:31.811Z,96.66
2022-12-13T15:33:38.052Z,96.21
2022-12-13T15:36:42.626Z,96.25
2022-12-13T15:39:47.832Z,96.45
2022-12-13T15:42:50.475Z,96.65
2022-12-13T15:45:53.736Z,96.52
2022-12-13T15:48:56.008Z,96.81
2022-12-13T15:51:58.815Z,96.50
2022-12-13T15:55:02.285Z,96.43
2022-12-13T15:58:03.946Z,96.29
2022-12-13T16:01:07.001Z,96.22
2022-12-13T16:04:08.764Z,95.85
2022-12-13T16:07:19.841Z,95.61
2022-12-13T16:10:22.022Z,95.96
2022-12-13T16:13:26.183Z,95.97
2022-12-13T16:16:30.504Z,96.02
2022-12-13T16:19:32.716Z,96.23
2022-12-13T16:22:34.495Z,96.71
2022-12-13T16:25:36.230Z,95.98
2022-12-13T16:28:38.061Z,96.16
2022-12-13T16:31:44.606Z,96.03
2022-12-13T16:34:46.189Z,95.84
2022-12-13T16:37:48.195Z,95.72
2022-12-13T16:40:52.173Z,95.80
2022-12-13T16:43:55.987Z,96.02
2022-12-13T16:47:11.963Z,95.93
2022-12-13T16:50:21.083Z,96.10
2022-12-13T16:53:22.743Z,95.51
2022-12-13T16:56:24.543Z,95.43
2022-12-13T16:59:27.146Z,95.50
2022-12-13T17:05:33.273Z,95.74
2022-12-13T17:08:34.886Z,95.45
2022-12-13T17:11:36.949Z,95.13
2022-12-13T17:14:38.654Z,95.12
2022-12-13T17:17:42.467Z,95.50
2022-12-13T17:20:44.272Z,95.50
2022-12-13T17:23:46.009Z,95.72
2022-12-13T17:26:54.629Z,95.94
2022-12-13T17:29:56.923Z,95.92
2022-12-13T17:33:00.189Z,95.37
2022-12-13T17:36:03.190Z,95.71
2022-12-13T17:39:04.836Z,95.90
2022-12-13T17:42:06.790Z,95.48
2022-12-13T17:45:08.706Z,95.24
2022-12-13T17:48:11.705Z,95.47
2022-12-13T17:51:14.082Z,95.24
2022-12-13T17:54:15.720Z,95.41
2022-12-13T17:57:17.413Z,95.68
2022-12-13T18:00:19.154Z,95.42
2022-12-13T18:03:22.455Z,95.34
2022-12-13T18:06:24.947Z,95.71
2022-12-13T18:09:26.514Z,95.37
2022-12-13T18:12:28.288Z,95.57
2022-12-13T18:15:30.688Z,95.14
2022-12-13T18:18:36.898Z,95.52
2022-12-13T18:21:38.692Z,95.25
2022-12-13T18:24:40.374Z,95.30
2022-12-13T18:27:42.661Z,95.54
2022-12-13T18:30:44.381Z,95.52
2022-12-13T18:33:48.330Z,95.47
2022-12-13T18:36:49.915Z,95.42
2022-12-13T18:39:54.596Z,95.52
2022-12-13T18:42:56.865Z,95.39
2022-12-13T18:46:01.380Z,95.24
2022-12-13T18:49:04.715Z,95.31
2022-12-13T18:52:06.385Z,95.32
2022-12-13T18:55:08.297Z,95.29
2022-12-13T18:58:10.046Z,95.34
2022-12-13T19:01:12.821Z,95.40
2022-12-13T19:04:15.862Z,95.24
2022-12-13T19:07:17.430Z,95.40
2022-12-13T19:10:19.292Z,94.94
2022-12-13T19:13:22.977Z,95.26
2022-12-13T19:16:26.192Z,95.14
2022-12-13T19:19:29.394Z,95.18
2022-12-13T19:22:30.926Z,95.23
2022-12-13T19:25:32.556Z,94.93
2022-12-13T19:28:34.529Z,95.11
2022-12-13T19:31:36.463Z,94.98
2022-12-13T19:34:39.507Z,94.95
2022-12-13T19:37:41.211Z,95.17
2022-12-13T19:40:43.257Z,95.04
2022-12-13T19:43:50.624Z,95.12
2022-12-13T19:46:56.005Z,95.04
2022-12-13T19:49:59.191Z,95.00
2022-12-13T19:53:00.795Z,94.87
2022-12-13T19:56:02.589Z,95.32
2022-12-13T19:59:04.289Z,95.32
2022-12-13T20:02:06.077Z,95.38
2022-12-13T20:05:09.831Z,95.23
2022-12-13T20:08:11.410Z,95.49
2022-12-13T20:11:14.288Z,95.31
2022-12-13T20:14:16.148Z,95.28
2022-12-13T20:17:17.760Z,95.28
2022-12-13T20:20:21.000Z,95.50
2022-12-13T20:23:22.596Z,95.86
2022-12-13T20:26:26.025Z,95.29
2022-12-13T20:29:27.733Z,95.23
2022-12-13T20:32:30.783Z,95.28
2022-12-13T20:35:33.995Z,95.34
2022-12-13T20:38:35.769Z,95.09
2022-12-13T20:41:37.564Z,94.72
2022-12-13T20:44:39.312Z,95.33
2022-12-13T20:47:40.938Z,94.88
2022-12-13T20:50:43.945Z,95.15
2022-12-13T20:53:53.238Z,94.71
2022-12-13T20:56:55.061Z,94.99
2022-12-13T20:59:56.769Z,94.86
2022-12-13T21:03:00.385Z,94.75
2022-12-13T21:06:03.417Z,94.62
2022-12-13T21:09:05.882Z,94.40
2022-12-13T21:12:07.448Z,94.66
2022-12-13T21:15:09.219Z,94.67
2022-12-13T21:18:10.789Z,94.16
2022-12-13T21:21:13.903Z,93.97
2022-12-13T21:24:17.386Z,94.11
2022-12-13T21:27:19.766Z,94.30
2022-12-13T21:30:22.350Z,94.21
2022-12-13T21:33:24.141Z,94.84
2022-12-13T21:36:28.355Z,94.23
2022-12-13T21:39:29.916Z,94.29
2022-12-13T21:42:31.596Z,94.09
2022-12-13T21:45:35.491Z,93.83
2022-12-13T21:48:37.937Z,94.31
2022-12-13T21:51:47.358Z,93.78
2022-12-13T21:54:52.800Z,93.64
2022-12-13T21:58:15.991Z,93.83
2022-12-13T22:01:17.779Z,93.84
2022-12-13T22:04:20.143Z,93.67
2022-12-13T22:07:24.440Z,93.64
2022-12-13T22:10:26.242Z,93.73
2022-12-13T22:13:28.415Z,93.38
2022-12-13T22:16:30.366Z,93.90
2022-12-13T22:19:32.774Z,93.98
2022-12-13T22:22:37.310Z,93.39
2022-12-13T22:25:39.005Z,93.23
2022-12-13T22:28:40.748Z,93.52
2022-12-13T22:31:42.548Z,93.92
2022-12-13T22:34:45.083Z,93.81
2022-12-13T22:37:49.956Z,93.50
2022-12-13T22:40:51.728Z,93.77
2022-12-13T22:43:53.555Z,93.47
2022-12-13T22:46:55.682Z,93.32
2022-12-13T22:49:57.327Z,93.51
2022-12-13T22:53:00.627Z,93.90
2022-12-13T22:56:06.025Z,94.13
2022-12-13T22:59:08.275Z,93.36
2022-12-13T23:02:10.403Z,93.42
2022-12-13T23:05:12.262Z,93.46
2022-12-13T23:08:15.342Z,93.34
2022-12-13T23:11:35.605Z,93.96
2022-12-13T23:14:37.419Z,94.17
2022-12-13T23:17:39.003Z,93.70
2022-12-13T23:20:40.749Z,94.19
2022-12-13T23:23:43.982Z,94.23
2022-12-13T23:26:45.722Z,94.10
2022-12-13T23:29:47.370Z,94.42
2022-12-13T23:32:49.056Z,94.50
2022-12-13T23:35:57.157Z,94.46
2022-12-13T23:39:00.558Z,94.48
2022-12-13T23:42:02.381Z,94.33
2022-12-13T23:45:04.244Z,94.10
2022-12-13T23:48:06.359Z,94.45
2022-12-13T23:51:10.127Z,94.26
2022-12-13T23:54:16.534Z,94.53
2022-12-13T23:57:18.187Z,94.44
